Time;durP1;ratioP1;P1;durP2;ratioP2;P2;SDS_P1;SDS_P2;PMS_P1;PMS_P2;Temp;Humidity;BMP_temperature;BMP_pressure;BME280_temperature;BME280_humidity;BME280_pressure;Samples;Min_cycle;Max_cycle;Signal;HPM_P1;HPM_P2
2022/12/15 00:38:59;;;;;;;9.88;3.10;;;;;;;;;;4965873;28;20086;-91
2022/12/15 00:41:25;;;;;;;9.90;3.17;;;;;;;;;;4942096;28;20037;-91
2022/12/15 00:43:52;;;;;;;7.78;3.72;;;;;;;;;;4941739;28;20031;-89
2022/12/15 00:49:02;;;;;;;8.75;4.13;;;;;;;;;;4940978;28;20050;-89
2022/12/15 01:21:41;;;;;;;14.48;3.47;;;;;;;;;;4952980;28;20062;-90
2022/12/15 01:24:07;;;;;;;9.55;4.00;;;;;;;;;;4935557;28;20055;-91
2022/12/15 01:26:36;;;;;;;16.42;3.70;;;;;;;;;;4946071;28;20595;-91
2022/12/15 01:29:02;;;;;;;9.57;3.50;;;;;;;;;;4916546;29;20115;-90
2022/12/15 01:31:31;;;;;;;9.70;3.45;;;;;;;;;;4932930;28;20035;-90
2022/12/15 01:33:58;;;;;;;9.77;3.72;;;;;;;;;;4923614;29;20134;-91
2022/12/15 01:36:24;;;;;;;9.70;3.80;;;;;;;;;;4914498;28;20030;-93
2022/12/15 01:38:50;;;;;;;8.25;3.90;;;;;;;;;;4949763;29;20432;-91
2022/12/15 01:41:16;;;;;;;15.70;3.75;;;;;;;;;;4910462;28;23246;-89
2022/12/15 01:43:42;;;;;;;9.48;3.72;;;;;;;;;;4917005;29;20475;-90
2022/12/15 01:46:13;;;;;;;10.85;4.00;;;;;;;;;;4933123;29;20042;-92
2022/12/15 01:48:43;;;;;;;6.88;3.35;;;;;;;;;;4953470;28;20035;-88
2022/12/15 01:51:12;;;;;;;12.50;3.72;;;;;;;;;;4955315;28;20067;-91
2022/12/15 01:53:53;;;;;;;5.55;2.75;;;;;;;;;;4950864;28;20047;-90
2022/12/15 01:56:20;;;;;;;8.82;3.22;;;;;;;;;;4925894;29;20121;-89
2022/12/15 01:58:48;;;;;;;5.68;2.92;;;;;;;;;;4918387;29;20087;-91
2022/12/15 02:01:14;;;;;;;8.27;3.10;;;;;;;;;;4950901;28;20031;-90
2022/12/15 02:03:41;;;;;;;10.07;3.25;;;;;;;;;;4948635;28;20808;-90
2022/12/15 02:06:08;;;;;;;9.32;3.38;;;;;;;;;;4952427;28;20035;-92
2022/12/15 02:08:39;;;;;;;6.65;3.40;;;;;;;;;;4952973;28;20371;-93
2022/12/15 02:11:15;;;;;;;12.18;3.45;;;;;;;;;;4920027;28;20039;-90
2022/12/15 02:13:53;;;;;;;3.70;1.92;;;;;;;;;;4949158;28;20098;-92
2022/12/15 02:16:29;;;;;;;9.10;4.00;;;;;;;;;;4946116;28;20042;-91
2022/12/15 02:19:07;;;;;;;5.97;2.83;;;;;;;;;;4939189;28;20031;-90
2022/12/15 02:21:38;;;;;;;7.20;2.90;;;;;;;;;;4941556;28;20456;-92
2022/12/15 02:24:29;;;;;;;10.52;3.15;;;;;;;;;;4953168;28;20046;-92
2022/12/15 02:27:11;;;;;;;7.55;3.10;;;;;;;;;;4949733;28;20062;-91
2022/12/15 02:29:50;;;;;;;3.70;1.63;;;;;;;;;;4947591;28;20035;-92
2022/12/15 02:32:20;;;;;;;9.13;3.65;;;;;;;;;;4947489;28;20034;-89
2022/12/15 02:34:58;;;;;;;11.70;2.97;;;;;;;;;;4950638;28;20043;-91
2022/12/15 02:37:44;;;;;;;13.63;3.05;;;;;;;;;;4939370;28;20031;-90
2022/12/15 02:40:11;;;;;;;8.95;3.38;;;;;;;;;;4935986;29;20094;-88
2022/12/15 02:42:42;;;;;;;11.95;3.35;;;;;;;;;;4934941;28;20058;-89
2022/12/15 02:45:27;;;;;;;8.13;3.53;;;;;;;;;;4952612;28;20043;-92
2022/12/15 02:48:12;;;;;;;7.05;2.95;;;;;;;;;;4951953;28;20035;-91
2022/12/15 02:50:48;;;;;;;7.65;3.60;;;;;;;;;;4952786;28;20031;-91
2022/12/15 02:53:20;;;;;;;11.90;3.72;;;;;;;;;;4957008;28;20031;-90
2022/12/15 02:56:05;;;;;;;10.35;3.88;;;;;;;;;;4954095;28;20385;-90
2022/12/15 02:58:52;;;;;;;7.40;3.47;;;;;;;;;;4956994;28;20034;-90
2022/12/15 03:01:25;;;;;;;8.90;4.38;;;;;;;;;;4957764;28;20134;-89
2022/12/15 03:03:51;;;;;;;12.63;4.00;;;;;;;;;;4960077;28;20031;-90
2022/12/15 03:06:28;;;;;;;8.98;3.15;;;;;;;;;;4924880;28;20047;-89
2022/12/15 03:08:54;;;;;;;7.80;3.22;;;;;;;;;;4957396;28;20124;-90
2022/12/15 03:11:20;;;;;;;7.55;3.88;;;;;;;;;;4935278;29;20023;-88
2022/12/15 03:13:49;;;;;;;11.50;3.83;;;;;;;;;;4941469;28;20046;-87
2022/12/15 03:16:15;;;;;;;14.20;3.75;;;;;;;;;;4957300;28;20062;-89
2022/12/15 03:18:45;;;;;;;9.85;3.53;;;;;;;;;;4957163;28;20482;-89
2022/12/15 03:21:14;;;;;;;10.40;3.45;;;;;;;;;;4955162;28;20126;-91
2022/12/15 03:23:40;;;;;;;10.02;3.28;;;;;;;;;;4932922;28;20039;-87
2022/12/15 03:26:10;;;;;;;9.15;3.35;;;;;;;;;;4928692;28;20479;-90
2022/12/15 03:28:36;;;;;;;14.00;3.08;;;;;;;;;;4953819;28;20066;-91
2022/12/15 03:31:04;;;;;;;9.82;3.33;;;;;;;;;;4961270;28;20104;-91
2022/12/15 03:33:34;;;;;;;9.45;3.15;;;;;;;;;;4927189;29;20035;-91
2022/12/15 03:36:19;;;;;;;13.70;2.45;;;;;;;;;;4961609;28;20087;-89
2022/12/15 03:38:45;;;;;;;12.45;3.22;;;;;;;;;;4925189;28;20041;-91
2022/12/15 03:41:24;;;;;;;7.20;3.47;;;;;;;;;;4953688;28;20411;-91
2022/12/15 03:43:50;;;;;;;6.32;2.20;;;;;;;;;;4962606;28;20049;-90
2022/12/15 03:46:17;;;;;;;3.38;1.35;;;;;;;;;;4960242;28;20059;-91
2022/12/15 03:48:43;;;;;;;8.40;2.85;;;;;;;;;;4953359;28;21345;-89
2022/12/15 03:51:12;;;;;;;17.80;2.85;;;;;;;;;;4953408;28;20396;-90
2022/12/15 03:53:41;;;;;;;9.52;2.67;;;;;;;;;;4949090;28;20505;-91
2022/12/15 03:56:08;;;;;;;5.38;2.03;;;;;;;;;;4918736;29;20040;-91
2022/12/15 03:58:34;;;;;;;5.35;2.78;;;;;;;;;;4954245;28;20047;-90
2022/12/15 04:01:09;;;;;;;5.47;2.33;;;;;;;;;;4919025;29;20019;-92
2022/12/15 04:03:35;;;;;;;4.10;1.58;;;;;;;;;;4954411;28;20079;-92
2022/12/15 04:06:01;;;;;;;13.55;2.58;;;;;;;;;;4953898;28;20031;-92
2022/12/15 04:08:27;;;;;;;6.65;2.30;;;;;;;;;;4954984;28;20054;-91
2022/12/15 04:10:54;;;;;;;5.88;2.08;;;;;;;;;;4934695;29;20098;-92
2022/12/15 04:13:20;;;;;;;3.95;1.50;;;;;;;;;;4933939;29;20043;-90
2022/12/15 04:15:46;;;;;;;5.00;1.80;;;;;;;;;;4908003;28;22330;-92
2022/12/15 04:18:12;;;;;;;16.77;2.65;;;;;;;;;;4949433;28;20036;-90
2022/12/15 04:20:48;;;;;;;6.65;1.77;;;;;;;;;;4934454;29;20039;-91
2022/12/15 04:23:15;;;;;;;0.57;0.57;;;;;;;;;;4952695;28;20415;-90
2022/12/15 05:31:54;;;;;;;14.50;4.35;;;;;;;;;;4958607;28;20095;-90
2022/12/15 05:34:23;;;;;;;6.00;3.35;;;;;;;;;;4937413;29;20128;-90
2022/12/15 05:36:50;;;;;;;7.72;3.85;;;;;;;;;;4952432;28;20035;-91
2022/12/15 05:39:16;;;;;;;10.55;3.45;;;;;;;;;;4968242;28;20034;-88
2022/12/15 05:41:42;;;;;;;8.95;3.97;;;;;;;;;;4939134;29;20030;-91
2022/12/15 05:44:08;;;;;;;4.78;2.15;;;;;;;;;;4948964;28;20555;-90
2022/12/15 05:46:35;;;;;;;11.45;3.42;;;;;;;;;;4939621;29;20147;-91
2022/12/15 05:49:13;;;;;;;16.67;2.97;;;;;;;;;;4942994;28;20031;-91
2022/12/15 05:51:40;;;;;;;6.75;3.63;;;;;;;;;;4943174;28;20037;-90
2022/12/15 05:54:10;;;;;;;9.30;4.20;;;;;;;;;;4967680;28;20043;-90
2022/12/15 05:56:36;;;;;;;7.72;4.05;;;;;;;;;;4923196;28;20055;-90
2022/12/15 05:59:02;;;;;;;5.07;2.83;;;;;;;;;;4946705;28;20031;-88
2022/12/15 06:01:30;;;;;;;15.60;4.13;;;;;;;;;;4923232;28;20035;-90
2022/12/15 06:03:56;;;;;;;9.48;4.30;;;;;;;;;;4956163;28;20130;-91
2022/12/15 06:06:23;;;;;;;5.07;2.67;;;;;;;;;;4954093;28;20023;-89
2022/12/15 06:08:49;;;;;;;7.55;2.28;;;;;;;;;;4912533;29;20452;-90
2022/12/15 06:11:16;;;;;;;11.90;3.83;;;;;;;;;;4942440;28;20177;-89
2022/12/15 06:13:42;;;;;;;11.85;3.85;;;;;;;;;;4952249;28;20024;-89
2022/12/15 06:16:29;;;;;;;4.20;2.80;;;;;;;;;;4953594;28;20522;-89
2022/12/15 06:18:56;;;;;;;3.13;2.17;;;;;;;;;;4947609;28;20065;-91
2022/12/15 06:21:24;;;;;;;11.05;3.85;;;;;;;;;;4953724;28;20028;-90
2022/12/15 06:23:50;;;;;;;16.00;2.92;;;;;;;;;;4944094;28;20027;-90
2022/12/15 06:26:27;;;;;;;10.98;3.10;;;;;;;;;;4930784;28;20063;-91
2022/12/15 06:28:54;;;;;;;4.05;2.42;;;;;;;;;;4942598;28;20043;-90
2022/12/15 06:31:21;;;;;;;7.07;3.25;;;;;;;;;;4950946;28;20036;-89
2022/12/15 06:33:48;;;;;;;11.93;4.35;;;;;;;;;;4950290;28;20158;-89
2022/12/15 06:36:15;;;;;;;10.35;4.28;;;;;;;;;;4925812;28;20118;-92
2022/12/15 06:38:44;;;;;;;10.07;4.18;;;;;;;;;;4948974;28;20023;-91
2022/12/15 06:41:11;;;;;;;8.30;3.80;;;;;;;;;;4948921;28;20058;-90
2022/12/15 06:43:37;;;;;;;8.05;2.72;;;;;;;;;;4948572;28;20039;-91
2022/12/15 06:46:04;;;;;;;11.55;4.15;;;;;;;;;;4926657;29;20138;-90
2022/12/15 06:48:30;;;;;;;6.68;2.75;;;;;;;;;;4952001;28;20071;-92
2022/12/15 06:50:56;;;;;;;13.43;3.97;;;;;;;;;;4949965;28;20669;-91
2022/12/15 06:53:23;;;;;;;13.20;4.15;;;;;;;;;;4942773;28;20474;-89
2022/12/15 06:55:49;;;;;;;11.68;4.55;;;;;;;;;;4927252;29;20039;-89
2022/12/15 06:58:16;;;;;;;3.28;2.60;;;;;;;;;;4942526;28;20036;-90
2022/12/15 07:00:45;;;;;;;8.70;3.55;;;;;;;;;;4943652;28;20055;-89
2022/12/15 07:03:16;;;;;;;13.95;2.92;;;;;;;;;;4943058;28;20023;-90
2022/12/15 07:05:42;;;;;;;7.63;2.92;;;;;;;;;;4929840;29;20118;-90
2022/12/15 07:08:09;;;;;;;5.13;2.92;;;;;;;;;;4944679;28;20035;-90
2022/12/15 07:10:37;;;;;;;9.13;3.45;;;;;;;;;;4946708;28;20034;-88
2022/12/15 07:13:03;;;;;;;7.95;3.50;;;;;;;;;;4945692;28;20039;-90
2022/12/15 07:15:30;;;;;;;7.22;2.30;;;;;;;;;;4933364;28;20027;-90
2022/12/15 07:17:56;;;;;;;13.32;3.95;;;;;;;;;;4949252;28;20708;-89
2022/12/15 07:20:26;;;;;;;20.45;4.30;;;;;;;;;;4962056;28;20042;-91
2022/12/15 07:22:52;;;;;;;7.22;2.72;;;;;;;;;;4934589;28;20061;-89
2022/12/15 07:25:24;;;;;;;6.80;3.20;;;;;;;;;;4950593;28;20043;-90
2022/12/15 07:27:57;;;;;;;12.52;3.75;;;;;;;;;;4950414;28;20043;-91
2022/12/15 07:30:24;;;;;;;6.47;3.05;;;;;;;;;;4929628;29;20073;-90
2022/12/15 07:32:51;;;;;;;7.72;3.30;;;;;;;;;;4929267;29;20102;-91
2022/12/15 07:35:17;;;;;;;7.57;3.33;;;;;;;;;;4946521;28;20705;-91
2022/12/15 07:37:43;;;;;;;13.70;4.10;;;;;;;;;;4949163;28;20034;-89
2022/12/15 07:40:12;;;;;;;10.07;3.53;;;;;;;;;;4917241;28;20031;-90
2022/12/15 07:42:38;;;;;;;12.00;4.00;;;;;;;;;;4944537;28;20534;-88
2022/12/15 07:45:13;;;;;;;11.40;4.18;;;;;;;;;;4944752;28;20082;-89
2022/12/15 07:47:39;;;;;;;10.87;4.73;;;;;;;;;;4945522;28;20126;-90
2022/12/15 07:50:05;;;;;;;4.55;2.25;;;;;;;;;;4918234;29;20039;-88
2022/12/15 07:52:31;;;;;;;5.78;2.97;;;;;;;;;;4914609;29;20123;-89
2022/12/15 07:54:57;;;;;;;6.35;3.15;;;;;;;;;;4944911;28;20040;-90
2022/12/15 07:57:23;;;;;;;8.18;3.30;;;;;;;;;;4916435;28;20563;-90
2022/12/15 07:59:52;;;;;;;5.82;2.55;;;;;;;;;;4944977;28;20032;-90
2022/12/15 08:02:18;;;;;;;10.65;3.30;;;;;;;;;;4938585;28;20039;-90
2022/12/15 08:04:47;;;;;;;12.23;4.45;;;;;;;;;;4928523;29;20440;-90
2022/12/15 08:07:14;;;;;;;13.68;4.05;;;;;;;;;;4931135;28;20035;-90
2022/12/15 08:09:45;;;;;;;13.23;2.70;;;;;;;;;;4925044;29;20035;-90
2022/12/15 08:12:12;;;;;;;8.80;4.10;;;;;;;;;;4924568;28;20397;-92
2022/12/15 08:14:41;;;;;;;8.50;3.10;;;;;;;;;;4922506;29;20047;-92
2022/12/15 08:17:07;;;;;;;12.10;4.32;;;;;;;;;;4923279;28;20034;-90
2022/12/15 08:19:35;;;;;;;9.73;3.95;;;;;;;;;;4925363;29;20067;-91
2022/12/15 08:22:01;;;;;;;12.13;4.00;;;;;;;;;;4919781;29;20384;-89
2022/12/15 08:24:38;;;;;;;12.65;3.97;;;;;;;;;;4920474;29;20051;-92
2022/12/15 08:27:05;;;;;;;7.55;3.65;;;;;;;;;;4920527;28;20070;-90
2022/12/15 08:29:31;;;;;;;5.18;3.17;;;;;;;;;;4938619;28;20042;-89
2022/12/15 08:32:13;;;;;;;7.10;2.90;;;;;;;;;;4937558;28;20059;-89
2022/12/15 08:34:42;;;;;;;10.02;4.00;;;;;;;;;;4942202;28;20052;-91
2022/12/15 08:37:08;;;;;;;13.48;4.80;;;;;;;;;;4907129;29;20048;-89
2022/12/15 08:39:34;;;;;;;10.52;3.72;;;;;;;;;;4941978;28;20031;-91
2022/12/15 08:42:23;;;;;;;12.02;4.97;;;;;;;;;;4918209;29;20617;-91
2022/12/15 08:44:49;;;;;;;9.15;2.35;;;;;;;;;;4934154;28;20050;-90
2022/12/15 08:47:27;;;;;;;5.70;2.08;;;;;;;;;;4909691;28;20031;-90
2022/12/15 08:50:02;;;;;;;7.72;4.03;;;;;;;;;;4944044;28;20035;-91
2022/12/15 08:52:47;;;;;;;13.98;4.63;;;;;;;;;;4941487;28;20066;-91
2022/12/15 08:55:20;;;;;;;4.97;2.92;;;;;;;;;;4924648;29;20051;-91
2022/12/15 08:58:03;;;;;;;7.03;2.55;;;;;;;;;;4938642;28;20582;-90
2022/12/15 09:01:03;;;;;;;14.40;4.47;;;;;;;;;;4917595;28;20075;-90
2022/12/15 09:03:52;;;;;;;9.75;4.85;;;;;;;;;;4900171;28;20104;-90
2022/12/15 09:07:09;;;;;;;14.23;4.70;;;;;;;;;;4945505;28;20091;-91
2022/12/15 09:10:01;;;;;;;17.03;4.17;;;;;;;;;;4856681;29;20041;-93
2022/12/15 09:12:34;;;;;;;6.57;3.88;;;;;;;;;;4866846;29;20294;-91
2022/12/15 09:15:01;;;;;;;4.82;2.95;;;;;;;;;;4892311;29;20051;-90
2022/12/15 09:17:29;;;;;;;10.43;4.15;;;;;;;;;;4924376;29;20031;-89
2022/12/15 09:19:56;;;;;;;6.95;3.47;;;;;;;;;;4928737;28;20142;-90
2022/12/15 09:22:22;;;;;;;10.52;4.65;;;;;;;;;;4944597;28;20026;-91
2022/12/15 09:24:48;;;;;;;15.70;4.78;;;;;;;;;;4926966;28;20047;-90
2022/12/15 09:27:29;;;;;;;5.13;2.53;;;;;;;;;;4911278;28;20051;-89
2022/12/15 09:29:55;;;;;;;9.95;4.38;;;;;;;;;;4944420;28;20027;-89
2022/12/15 09:32:24;;;;;;;10.02;4.32;;;;;;;;;;4915212;28;20077;-90
2022/12/15 09:34:52;;;;;;;16.15;4.78;;;;;;;;;;4941492;28;20126;-90
2022/12/15 09:37:30;;;;;;;16.02;5.43;;;;;;;;;;4932075;28;20050;-90
2022/12/15 09:39:59;;;;;;;14.38;5.00;;;;;;;;;;4919434;29;20035;-90
2022/12/15 09:42:27;;;;;;;11.13;4.85;;;;;;;;;;4939982;28;20523;-90
2022/12/15 09:45:16;;;;;;;11.40;2.40;;;;;;;;;;4943415;28;20035;-90
2022/12/15 09:47:47;;;;;;;18.30;5.85;;;;;;;;;;4919519;28;20050;-89
2022/12/15 09:50:22;;;;;;;9.57;5.25;;;;;;;;;;4940021;28;20503;-89
2022/12/15 09:52:53;;;;;;;11.07;4.57;;;;;;;;;;4942220;28;20059;-89
2022/12/15 09:55:21;;;;;;;10.45;4.90;;;;;;;;;;4942296;28;20368;-90
2022/12/15 09:57:58;;;;;;;13.43;3.70;;;;;;;;;;4941617;28;20074;-89
2022/12/15 10:00:44;;;;;;;17.48;5.43;;;;;;;;;;4953927;28;20020;-90
2022/12/15 10:03:38;;;;;;;14.70;5.35;;;;;;;;;;4944375;28;20509;-91
2022/12/15 10:06:59;;;;;;;;;;;;;;;;;;;;;
2022/12/15 10:09:27;;;;;;;9.65;4.20;;;;;;;;;;4919744;28;20050;-88
2022/12/15 10:12:15;;;;;;;10.23;3.67;;;;;;;;;;4953379;28;20039;-88
2022/12/15 10:14:50;;;;;;;6.78;2.65;;;;;;;;;;4953211;28;20045;-88
2022/12/15 10:17:27;;;;;;;9.98;4.57;;;;;;;;;;4949932;28;20122;-89
2022/12/15 10:20:30;;;;;;;5.05;2.05;;;;;;;;;;4951470;28;20035;-90
2022/12/15 10:33:12;;;;;;;17.23;3.97;;;;;;;;;;4915006;29;20346;-91
2022/12/15 10:45:46;;;;;;;8.02;3.92;;;;;;;;;;4867761;29;20037;-91
2022/12/15 10:51:35;;;;;;;13.27;4.00;;;;;;;;;;4885072;29;20083;-91
2022/12/15 10:57:35;;;;;;;11.18;3.78;;;;;;;;;;4879257;29;20049;-90
2022/12/15 11:00:39;;;;;;;;;;;;;;;;;;;;;
2022/12/15 11:03:36;;;;;;;13.23;4.00;;;;;;;;;;4933721;29;20130;-91
2022/12/15 11:22:02;;;;;;;;;;;;;;;;;;;;;
2022/12/15 11:34:15;;;;;;;8.50;3.08;;;;;;;;;;4820756;29;20034;-91
2022/12/15 11:37:05;;;;;;;12.05;5.05;;;;;;;;;;4829827;29;20099;-92
2022/12/15 11:43:12;;;;;;;6.43;3.42;;;;;;;;;;4841476;29;20048;-91
2022/12/15 11:49:23;;;;;;;15.03;3.83;;;;;;;;;;4856913;29;20051;-91
2022/12/15 11:52:07;;;;;;;7.82;3.92;;;;;;;;;;4867243;29;20048;-91
2022/12/15 11:57:51;;;;;;;6.75;3.17;;;;;;;;;;4866140;29;20440;-92
2022/12/15 12:07:40;;;;;;;4.20;2.92;;;;;;;;;;4812038;29;20107;-91
2022/12/15 12:13:31;;;;;;;5.80;3.10;;;;;;;;;;4811650;29;20085;-90
2022/12/15 12:16:26;;;;;;;;;;;;;;;;;;;;;
2022/12/15 12:23:01;;;;;;;10.60;4.45;;;;;;;;;;4834043;29;20033;-91
2022/12/15 12:25:42;;;;;;;;;;;;;;;;;;;;;
2022/12/15 12:32:11;;;;;;;7.63;3.70;;;;;;;;;;4833730;29;20157;-90
2022/12/15 12:34:55;;;;;;;5.47;2.72;;;;;;;;;;4802147;29;20157;-90
2022/12/15 12:41:09;;;;;;;;;;;;;;;;;;;;;
2022/12/15 12:43:49;;;;;;;10.90;4.20;;;;;;;;;;4817114;29;20042;-91
2022/12/15 12:46:44;;;;;;;8.57;4.18;;;;;;;;;;4830240;29;20083;-91
2022/12/15 12:52:40;;;;;;;10.98;4.43;;;;;;;;;;4842403;29;20488;-91
2022/12/15 12:55:40;;;;;;;6.45;2.92;;;;;;;;;;4858221;29;20538;-91
2022/12/15 13:01:41;;;;;;;;;;;;;;;;;;;;;
2022/12/15 13:07:25;;;;;;;;;;;;;;;;;;4870830;29;20569;-90
2022/12/15 13:13:14;;;;;;;12.80;4.20;;;;;;;;;;4902208;29;20047;-91
2022/12/15 13:15:47;;;;;;;7.40;3.53;;;;;;;;;;4901838;29;20040;-91
2022/12/15 13:24:57;;;;;;;8.48;3.33;;;;;;;;;;4836364;29;20038;-92
2022/12/15 13:32:55;;;;;;;7.90;3.40;;;;;;;;;;826047;23;20481;-92
2022/12/15 13:35:38;;;;;;;14.80;3.95;;;;;;;;;;4965195;28;20043;-91
2022/12/15 13:38:06;;;;;;;5.70;2.78;;;;;;;;;;4956895;28;21339;-91
2022/12/15 13:40:34;;;;;;;9.43;3.83;;;;;;;;;;4951401;28;20063;-90
2022/12/15 13:43:04;;;;;;;13.07;2.83;;;;;;;;;;4987030;28;20031;-91
2022/12/15 13:45:48;;;;;;;5.25;2.85;;;;;;;;;;4973598;28;20095;-91
2022/12/15 13:48:26;;;;;;;10.02;2.53;;;;;;;;;;4971778;28;20045;-90
2022/12/15 13:50:56;;;;;;;15.02;3.65;;;;;;;;;;4978170;28;20038;-89
2022/12/15 13:53:24;;;;;;;12.95;3.45;;;;;;;;;;4995931;28;20414;-89
2022/12/15 13:55:58;;;;;;;9.90;3.13;;;;;;;;;;4989893;28;20576;-89
2022/12/15 13:58:25;;;;;;;18.13;4.38;;;;;;;;;;4979790;28;20035;-90
2022/12/15 14:00:56;;;;;;;8.25;3.70;;;;;;;;;;4987225;28;20026;-89
2022/12/15 14:03:23;;;;;;;7.82;3.38;;;;;;;;;;5011945;28;20034;-89
2022/12/15 14:05:53;;;;;;;12.43;3.50;;;;;;;;;;4990310;28;20030;-89
2022/12/15 14:08:20;;;;;;;8.98;3.38;;;;;;;;;;4982202;28;20030;-88
2022/12/15 14:10:50;;;;;;;11.10;4.15;;;;;;;;;;4987756;28;20041;-88
2022/12/15 14:13:20;;;;;;;10.68;3.75;;;;;;;;;;4992564;28;20042;-89
2022/12/15 14:16:13;;;;;;;12.27;3.45;;;;;;;;;;4988959;28;20030;-91
2022/12/15 14:18:39;;;;;;;12.48;4.20;;;;;;;;;;4982671;28;20571;-88
2022/12/15 14:21:06;;;;;;;11.63;4.93;;;;;;;;;;4977842;28;20489;-88
2022/12/15 14:23:40;;;;;;;8.85;4.18;;;;;;;;;;5010344;28;20041;-89
2022/12/15 14:26:10;;;;;;;14.73;4.53;;;;;;;;;;4997543;28;20030;-91
2022/12/15 14:28:37;;;;;;;10.05;2.13;;;;;;;;;;4997577;28;20342;-92
2022/12/15 14:31:17;;;;;;;6.13;3.50;;;;;;;;;;5002354;28;20092;-93
2022/12/15 14:34:09;;;;;;;9.48;3.00;;;;;;;;;;4985426;28;20838;-89
2022/12/15 14:36:36;;;;;;;16.40;4.35;;;;;;;;;;4982110;28;20584;-90
2022/12/15 14:39:04;;;;;;;10.88;4.35;;;;;;;;;;4974644;28;20036;-88
2022/12/15 14:41:30;;;;;;;10.82;4.57;;;;;;;;;;5002917;28;20026;-89
2022/12/15 14:44:01;;;;;;;21.13;7.10;;;;;;;;;;4987138;28;20034;-89
2022/12/15 14:46:28;;;;;;;18.83;4.63;;;;;;;;;;4983618;28;20034;-91
2022/12/15 14:48:55;;;;;;;7.97;2.28;;;;;;;;;;4992638;28;20463;-88
2022/12/15 14:51:26;;;;;;;15.13;3.28;;;;;;;;;;4985314;28;20532;-89
2022/12/15 14:53:52;;;;;;;17.38;5.47;;;;;;;;;;5000811;28;20500;-89
2022/12/15 14:56:29;;;;;;;9.63;3.75;;;;;;;;;;4985164;28;20045;-89
2022/12/15 14:59:02;;;;;;;11.38;4.47;;;;;;;;;;5001918;28;20040;-89
2022/12/15 15:01:29;;;;;;;10.60;3.85;;;;;;;;;;4990522;28;20031;-90
2022/12/15 15:04:02;;;;;;;16.13;3.33;;;;;;;;;;4990624;28;20025;-88
2022/12/15 15:06:39;;;;;;;13.13;4.88;;;;;;;;;;4992800;28;20025;-88
2022/12/15 15:09:25;;;;;;;16.67;5.07;;;;;;;;;;4992126;28;20030;-90
2022/12/15 15:11:56;;;;;;;6.63;2.83;;;;;;;;;;4999636;28;20458;-89
2022/12/15 15:14:49;;;;;;;9.93;4.78;;;;;;;;;;4988957;28;20030;-90
2022/12/15 15:17:19;;;;;;;17.58;4.78;;;;;;;;;;4982916;28;20034;-88
2022/12/15 15:19:48;;;;;;;15.10;4.47;;;;;;;;;;5000817;28;20022;-89
2022/12/15 15:22:25;;;;;;;15.73;5.18;;;;;;;;;;4989831;28;20083;-89
2022/12/15 15:24:55;;;;;;;9.13;3.97;;;;;;;;;;4983596;28;20725;-90
2022/12/15 15:27:28;;;;;;;13.20;4.85;;;;;;;;;;4984890;28;20490;-89
2022/12/15 15:30:12;;;;;;;16.00;5.63;;;;;;;;;;4992601;28;20034;-89
2022/12/15 15:32:49;;;;;;;16.00;5.47;;;;;;;;;;4991352;28;20041;-88
2022/12/15 15:35:23;;;;;;;14.52;4.75;;;;;;;;;;4987124;28;20045;-89
2022/12/15 15:37:50;;;;;;;24.88;6.28;;;;;;;;;;4985922;28;20030;-89
2022/12/15 15:40:17;;;;;;;19.30;5.70;;;;;;;;;;4994891;28;20073;-89
2022/12/15 15:42:44;;;;;;;14.43;5.63;;;;;;;;;;4986836;28;20512;-88
2022/12/15 15:45:13;;;;;;;20.35;5.47;;;;;;;;;;4989762;28;20438;-89
2022/12/15 15:47:41;;;;;;;16.70;6.07;;;;;;;;;;4985511;28;20030;-89
2022/12/15 15:50:11;;;;;;;25.65;6.10;;;;;;;;;;4996095;28;20053;-89
2022/12/15 15:52:37;;;;;;;17.40;5.63;;;;;;;;;;4982098;28;20088;-88
2022/12/15 15:55:06;;;;;;;13.68;4.75;;;;;;;;;;4992869;28;20030;-88
2022/12/15 15:57:33;;;;;;;16.35;5.78;;;;;;;;;;4986192;28;20030;-91
2022/12/15 16:00:00;;;;;;;20.15;5.10;;;;;;;;;;4974102;28;20038;-89
2022/12/15 16:02:26;;;;;;;15.65;6.43;;;;;;;;;;4993628;28;20088;-89
2022/12/15 16:04:52;;;;;;;13.82;4.60;;;;;;;;;;4992571;28;20050;-90
2022/12/15 16:07:24;;;;;;;18.75;6.95;;;;;;;;;;5006725;28;20030;-89
2022/12/15 16:09:50;;;;;;;14.13;6.18;;;;;;;;;;4994201;28;20034;-89
2022/12/15 16:12:29;;;;;;;13.48;6.50;;;;;;;;;;4978348;28;20030;-89
2022/12/15 16:14:55;;;;;;;19.05;6.82;;;;;;;;;;4986479;28;20038;-89
2022/12/15 16:17:22;;;;;;;15.38;6.38;;;;;;;;;;4984912;28;20034;-89
2022/12/15 16:19:48;;;;;;;10.73;4.32;;;;;;;;;;4975313;28;20026;-90
2022/12/15 16:22:21;;;;;;;16.90;6.72;;;;;;;;;;4988437;28;20077;-89
2022/12/15 16:24:47;;;;;;;13.20;6.13;;;;;;;;;;5000468;28;20029;-89
2022/12/15 16:27:14;;;;;;;17.23;7.28;;;;;;;;;;4973769;28;20524;-89
2022/12/15 16:29:40;;;;;;;20.98;7.00;;;;;;;;;;4987535;28;20038;-88
2022/12/15 16:32:09;;;;;;;14.18;5.53;;;;;;;;;;4993342;28;20030;-89
2022/12/15 16:34:35;;;;;;;16.67;6.38;;;;;;;;;;4994509;28;20093;-88
2022/12/15 16:37:01;;;;;;;13.18;4.25;;;;;;;;;;4991184;28;20026;-91
2022/12/15 16:39:30;;;;;;;12.77;6.15;;;;;;;;;;4978072;28;20482;-89
2022/12/15 16:41:59;;;;;;;21.05;7.75;;;;;;;;;;4990080;28;20393;-88
2022/12/15 16:44:28;;;;;;;12.95;5.70;;;;;;;;;;4989662;28;20022;-90
2022/12/15 16:47:03;;;;;;;20.13;6.68;;;;;;;;;;4987591;28;20034;-89
2022/12/15 16:49:35;;;;;;;16.50;6.80;;;;;;;;;;4988963;28;20057;-90
2022/12/15 16:52:01;;;;;;;18.27;7.43;;;;;;;;;;4977380;28;20034;-88
2022/12/15 16:54:30;;;;;;;16.08;7.43;;;;;;;;;;4990470;28;20026;-90
2022/12/15 16:56:57;;;;;;;18.55;5.82;;;;;;;;;;4984921;28;20037;-88
2022/12/15 16:59:25;;;;;;;14.18;6.88;;;;;;;;;;4989379;28;20050;-88
2022/12/15 17:01:51;;;;;;;21.33;7.07;;;;;;;;;;5007596;28;20527;-90
2022/12/15 17:04:18;;;;;;;19.70;7.20;;;;;;;;;;4979795;28;20136;-88
2022/12/15 17:06:44;;;;;;;18.98;7.30;;;;;;;;;;4993416;28;20049;-89
2022/12/15 17:09:18;;;;;;;17.77;6.93;;;;;;;;;;4988304;28;20034;-88
2022/12/15 17:11:44;;;;;;;19.50;7.28;;;;;;;;;;5001995;28;20038;-89
2022/12/15 17:14:10;;;;;;;24.42;9.85;;;;;;;;;;4998719;28;20037;-89
2022/12/15 17:16:37;;;;;;;25.40;8.13;;;;;;;;;;5000671;28;20528;-89
2022/12/15 17:19:03;;;;;;;24.23;7.63;;;;;;;;;;5005959;28;20022;-88
2022/12/15 17:21:33;;;;;;;19.35;7.70;;;;;;;;;;4974965;28;20121;-89
2022/12/15 17:24:01;;;;;;;17.40;7.35;;;;;;;;;;4990631;28;20045;-89
2022/12/15 17:26:28;;;;;;;15.60;7.45;;;;;;;;;;5005662;28;20379;-90
2022/12/15 17:28:55;;;;;;;18.40;8.52;;;;;;;;;;4990917;28;20040;-89
2022/12/15 17:31:23;;;;;;;30.88;10.70;;;;;;;;;;4976826;28;20592;-89
2022/12/15 17:33:49;;;;;;;18.15;7.47;;;;;;;;;;5002345;28;20022;-90
2022/12/15 17:36:26;;;;;;;20.90;8.32;;;;;;;;;;4986811;28;20425;-90
2022/12/15 17:38:56;;;;;;;21.02;8.68;;;;;;;;;;4995770;28;20099;-89
2022/12/15 17:41:23;;;;;;;28.60;10.07;;;;;;;;;;4995275;28;20495;-88
2022/12/15 17:43:50;;;;;;;10.30;3.42;;;;;;;;;;4989877;28;20041;-90
2022/12/15 17:46:17;;;;;;;31.90;11.38;;;;;;;;;;4986666;28;20514;-90
2022/12/15 17:48:43;;;;;;;25.20;10.45;;;;;;;;;;4977029;28;20033;-88
2022/12/15 17:51:18;;;;;;;22.48;10.75;;;;;;;;;;4987776;28;20027;-90
2022/12/15 17:53:48;;;;;;;14.98;6.88;;;;;;;;;;4990340;28;20501;-89
2022/12/15 17:56:17;;;;;;;22.85;9.45;;;;;;;;;;4991931;28;20528;-90
2022/12/15 17:58:45;;;;;;;22.40;9.57;;;;;;;;;;4989877;28;20026;-89
2022/12/15 18:01:12;;;;;;;22.27;10.45;;;;;;;;;;4976715;28;20607;-90
2022/12/15 18:03:38;;;;;;;24.05;10.25;;;;;;;;;;4988824;28;20469;-90
2022/12/15 18:06:05;;;;;;;21.40;9.80;;;;;;;;;;4992593;28;20069;-89
2022/12/15 18:08:33;;;;;;;27.08;10.43;;;;;;;;;;4991075;28;20436;-89
2022/12/15 18:11:02;;;;;;;24.58;10.55;;;;;;;;;;4994204;28;20030;-88
2022/12/15 18:13:30;;;;;;;24.52;10.35;;;;;;;;;;4971834;28;20103;-89
2022/12/15 18:15:56;;;;;;;13.95;5.75;;;;;;;;;;4981767;28;20030;-89
2022/12/15 18:18:25;;;;;;;25.35;11.00;;;;;;;;;;4987272;28;20049;-89
2022/12/15 18:20:56;;;;;;;30.95;9.88;;;;;;;;;;4995312;28;20470;-88
2022/12/15 18:23:24;;;;;;;23.85;10.13;;;;;;;;;;4987285;28;20482;-89
2022/12/15 18:25:51;;;;;;;19.70;7.85;;;;;;;;;;4991757;28;20038;-88
2022/12/15 18:28:24;;;;;;;29.38;10.45;;;;;;;;;;4987326;28;20133;-88
2022/12/15 18:30:51;;;;;;;42.45;11.30;;;;;;;;;;4987736;28;20433;-89
2022/12/15 18:33:18;;;;;;;30.45;13.82;;;;;;;;;;4990965;28;20038;-88
2022/12/15 18:35:47;;;;;;;35.53;13.75;;;;;;;;;;4978797;28;20050;-89
2022/12/15 18:38:17;;;;;;;34.45;14.27;;;;;;;;;;4981252;28;20511;-89
2022/12/15 18:40:51;;;;;;;30.38;14.90;;;;;;;;;;4991220;28;20461;-89
2022/12/15 18:43:18;;;;;;;28.67;12.43;;;;;;;;;;4988445;28;20109;-89
2022/12/15 18:45:44;;;;;;;32.72;13.32;;;;;;;;;;4973030;28;20390;-89
2022/12/15 18:48:15;;;;;;;27.80;12.57;;;;;;;;;;4983765;28;20609;-88
2022/12/15 18:50:41;;;;;;;27.23;12.57;;;;;;;;;;4987179;28;20264;-90
2022/12/15 18:53:18;;;;;;;30.65;14.15;;;;;;;;;;4990795;28;20040;-89
2022/12/15 18:55:44;;;;;;;27.27;13.15;;;;;;;;;;4985095;28;20053;-89
2022/12/15 18:58:23;;;;;;;24.10;12.00;;;;;;;;;;4980103;28;20033;-88
2022/12/15 19:00:53;;;;;;;30.83;12.98;;;;;;;;;;4993486;28;20108;-89
2022/12/15 19:03:20;;;;;;;33.72;12.07;;;;;;;;;;4987925;28;20125;-90
2022/12/15 19:05:47;;;;;;;39.10;13.27;;;;;;;;;;4971440;28;20038;-89
2022/12/15 19:08:17;;;;;;;30.52;11.85;;;;;;;;;;4989774;28;20026;-89
2022/12/15 19:10:50;;;;;;;25.98;11.13;;;;;;;;;;4987730;28;20719;-89
2022/12/15 19:13:18;;;;;;;29.00;9.43;;;;;;;;;;4979504;28;20355;-89